sensor_id;sensor_type;location;lat;lon;timestamp;P1;durP1;ratioP1;P2;durP2;ratioP2
74810;SDS011;63340;48.404;-4.506;2022-09-09T00:00:22;5.25;;;3.75;;
74810;SDS011;63340;48.404;-4.506;2022-09-09T00:05:39;5.75;;;5.00;;
74810;SDS011;63340;48.404;-4.506;2022-09-09T00:08:32;2.00;;;2.00;;
74810;SDS011;63340;48.404;-4.506;2022-09-09T00:11:29;5.00;;;4.50;;
74810;SDS011;63340;48.404;-4.506;2022-09-09T00:14:17;2.25;;;2.25;;
74810;SDS011;63340;48.404;-4.506;2022-09-09T00:16:45;6.50;;;5.00;;
74810;SDS011;63340;48.404;-4.506;2022-09-09T00:19:20;5.25;;;3.75;;
74810;SDS011;63340;48.404;-4.506;2022-09-09T00:22:00;8.00;;;5.00;;
74810;SDS011;63340;48.404;-4.506;2022-09-09T00:24:44;6.00;;;6.00;;
74810;SDS011;63340;48.404;-4.506;2022-09-09T00:27:23;2.25;;;1.25;;
74810;SDS011;63340;48.404;-4.506;2022-09-09T00:30:36;4.25;;;4.00;;
74810;SDS011;63340;48.404;-4.506;2022-09-09T00:32:55;5.25;;;5.00;;
74810;SDS011;63340;48.404;-4.506;2022-09-09T00:35:27;4.00;;;4.00;;
74810;SDS011;63340;48.404;-4.506;2022-09-09T00:37:57;6.50;;;4.50;;
74810;SDS011;63340;48.404;-4.506;2022-09-09T00:40:34;4.25;;;4.25;;
74810;SDS011;63340;48.404;-4.506;2022-09-09T00:43:25;4.00;;;3.50;;
74810;SDS011;63340;48.404;-4.506;2022-09-09T00:46:41;10.25;;;5.50;;
74810;SDS011;63340;48.404;-4.506;2022-09-09T00:48:57;4.75;;;3.75;;
74810;SDS011;63340;48.404;-4.506;2022-09-09T00:51:46;7.50;;;4.00;;
74810;SDS011;63340;48.404;-4.506;2022-09-09T00:57:16;5.00;;;3.75;;
74810;SDS011;63340;48.404;-4.506;2022-09-09T00:59:56;3.50;;;2.00;;
74810;SDS011;63340;48.404;-4.506;2022-09-09T01:08:21;6.50;;;3.75;;
74810;SDS011;63340;48.404;-4.506;2022-09-09T01:10:53;5.00;;;4.25;;
74810;SDS011;63340;48.404;-4.506;2022-09-09T01:13:27;3.50;;;3.00;;
74810;SDS011;63340;48.404;-4.506;2022-09-09T01:15:56;4.25;;;4.25;;
74810;SDS011;63340;48.404;-4.506;2022-09-09T01:18:26;5.50;;;4.50;;
74810;SDS011;63340;48.404;-4.506;2022-09-09T01:28:36;3.00;;;3.00;;
74810;SDS011;63340;48.404;-4.506;2022-09-09T01:31:04;4.50;;;3.25;;
74810;SDS011;63340;48.404;-4.506;2022-09-09T01:33:31;4.00;;;3.75;;
74810;SDS011;63340;48.404;-4.506;2022-09-09T01:35:59;8.25;;;3.75;;
74810;SDS011;63340;48.404;-4.506;2022-09-09T01:38:31;4.00;;;2.50;;
74810;SDS011;63340;48.404;-4.506;2022-09-09T01:41:03;3.50;;;2.75;;
74810;SDS011;63340;48.404;-4.506;2022-09-09T01:43:29;5.00;;;5.00;;
74810;SDS011;63340;48.404;-4.506;2022-09-09T01:45:55;3.00;;;3.00;;
74810;SDS011;63340;48.404;-4.506;2022-09-09T01:48:24;4.25;;;3.00;;
74810;SDS011;63340;48.404;-4.506;2022-09-09T01:50:50;4.00;;;3.00;;
74810;SDS011;63340;48.404;-4.506;2022-09-09T01:53:17;6.25;;;5.00;;
74810;SDS011;63340;48.404;-4.506;2022-09-09T01:55:47;5.00;;;4.00;;
74810;SDS011;63340;48.404;-4.506;2022-09-09T01:58:24;4.50;;;2.75;;
74810;SDS011;63340;48.404;-4.506;2022-09-09T02:03:50;4.75;;;4.50;;
74810;SDS011;63340;48.404;-4.506;2022-09-09T02:06:23;3.00;;;2.00;;
74810;SDS011;63340;48.404;-4.506;2022-09-09T02:08:55;4.00;;;3.00;;
74810;SDS011;63340;48.404;-4.506;2022-09-09T02:11:23;3.50;;;3.50;;
74810;SDS011;63340;48.404;-4.506;2022-09-09T02:13:54;4.00;;;4.00;;
74810;SDS011;63340;48.404;-4.506;2022-09-09T02:19:18;2.00;;;2.00;;
74810;SDS011;63340;48.404;-4.506;2022-09-09T02:21:50;2.50;;;2.00;;
74810;SDS011;63340;48.404;-4.506;2022-09-09T02:24:20;8.25;;;4.50;;
74810;SDS011;63340;48.404;-4.506;2022-09-09T02:26:51;3.50;;;3.00;;
74810;SDS011;63340;48.404;-4.506;2022-09-09T02:29:53;3.25;;;3.25;;
74810;SDS011;63340;48.404;-4.506;2022-09-09T02:32:17;7.25;;;3.25;;
74810;SDS011;63340;48.404;-4.506;2022-09-09T02:34:50;3.00;;;3.00;;
74810;SDS011;63340;48.404;-4.506;2022-09-09T02:37:21;3.00;;;3.00;;
74810;SDS011;63340;48.404;-4.506;2022-09-09T02:39:53;4.75;;;3.75;;
74810;SDS011;63340;48.404;-4.506;2022-09-09T02:42:19;4.00;;;3.00;;
74810;SDS011;63340;48.404;-4.506;2022-09-09T02:44:45;7.50;;;4.50;;
74810;SDS011;63340;48.404;-4.506;2022-09-09T02:52:30;5.50;;;4.00;;
74810;SDS011;63340;48.404;-4.506;2022-09-09T02:55:12;3.00;;;3.00;;
74810;SDS011;63340;48.404;-4.506;2022-09-09T02:57:48;3.25;;;3.25;;
74810;SDS011;63340;48.404;-4.506;2022-09-09T03:00:16;3.00;;;3.00;;
74810;SDS011;63340;48.404;-4.506;2022-09-09T03:02:49;3.00;;;3.00;;
74810;SDS011;63340;48.404;-4.506;2022-09-09T03:05:16;3.75;;;3.25;;
74810;SDS011;63340;48.404;-4.506;2022-09-09T03:07:41;3.50;;;3.25;;
74810;SDS011;63340;48.404;-4.506;2022-09-09T03:10:07;4.75;;;4.00;;
74810;SDS011;63340;48.404;-4.506;2022-09-09T03:12:33;3.00;;;2.75;;
74810;SDS011;63340;48.404;-4.506;2022-09-09T03:14:59;5.25;;;4.00;;
74810;SDS011;63340;48.404;-4.506;2022-09-09T03:17:24;3.50;;;2.00;;
74810;SDS011;63340;48.404;-4.506;2022-09-09T03:19:50;8.00;;;6.00;;
74810;SDS011;63340;48.404;-4.506;2022-09-09T03:22:17;5.25;;;3.00;;
74810;SDS011;63340;48.404;-4.506;2022-09-09T03:24:43;4.00;;;3.50;;
74810;SDS011;63340;48.404;-4.506;2022-09-09T03:27:09;3.00;;;3.00;;
74810;SDS011;63340;48.404;-4.506;2022-09-09T03:29:34;2.00;;;2.00;;
74810;SDS011;63340;48.404;-4.506;2022-09-09T03:32:00;3.50;;;3.00;;
74810;SDS011;63340;48.404;-4.506;2022-09-09T03:34:25;4.50;;;2.75;;
74810;SDS011;63340;48.404;-4.506;2022-09-09T03:36:52;5.00;;;4.00;;
74810;SDS011;63340;48.404;-4.506;2022-09-09T03:39:17;5.00;;;3.00;;
74810;SDS011;63340;48.404;-4.506;2022-09-09T03:41:42;3.75;;;3.75;;
74810;SDS011;63340;48.404;-4.506;2022-09-09T03:44:11;4.00;;;3.50;;
74810;SDS011;63340;48.404;-4.506;2022-09-09T03:46:37;4.00;;;4.00;;
74810;SDS011;63340;48.404;-4.506;2022-09-09T03:49:03;2.75;;;2.75;;
74810;SDS011;63340;48.404;-4.506;2022-09-09T03:51:29;5.25;;;3.50;;
74810;SDS011;63340;48.404;-4.506;2022-09-09T03:53:55;3.25;;;3.00;;
74810;SDS011;63340;48.404;-4.506;2022-09-09T03:56:21;4.00;;;4.00;;
74810;SDS011;63340;48.404;-4.506;2022-09-09T03:58:47;0.75;;;0.00;;
74810;SDS011;63340;48.404;-4.506;2022-09-09T04:01:13;4.00;;;3.00;;
74810;SDS011;63340;48.404;-4.506;2022-09-09T04:03:39;4.00;;;3.00;;
74810;SDS011;63340;48.404;-4.506;2022-09-09T04:06:06;4.50;;;4.00;;
74810;SDS011;63340;48.404;-4.506;2022-09-09T04:08:36;4.75;;;4.25;;
74810;SDS011;63340;48.404;-4.506;2022-09-09T04:11:03;2.00;;;2.00;;
74810;SDS011;63340;48.404;-4.506;2022-09-09T04:13:31;3.75;;;3.75;;
74810;SDS011;63340;48.404;-4.506;2022-09-09T04:16:02;3.75;;;3.00;;
74810;SDS011;63340;48.404;-4.506;2022-09-09T04:18:28;3.50;;;3.00;;
74810;SDS011;63340;48.404;-4.506;2022-09-09T04:20:54;4.50;;;3.00;;
74810;SDS011;63340;48.404;-4.506;2022-09-09T04:23:25;5.25;;;4.25;;
74810;SDS011;63340;48.404;-4.506;2022-09-09T04:25:57;3.75;;;3.75;;
74810;SDS011;63340;48.404;-4.506;2022-09-09T04:28:24;4.00;;;4.00;;
74810;SDS011;63340;48.404;-4.506;2022-09-09T04:30:51;4.25;;;3.50;;
74810;SDS011;63340;48.404;-4.506;2022-09-09T04:33:23;4.50;;;3.50;;
74810;SDS011;63340;48.404;-4.506;2022-09-09T04:35:52;3.25;;;3.00;;
74810;SDS011;63340;48.404;-4.506;2022-09-09T04:38:19;4.00;;;2.50;;
74810;SDS011;63340;48.404;-4.506;2022-09-09T04:40:47;2.75;;;2.00;;
74810;SDS011;63340;48.404;-4.506;2022-09-09T04:43:13;5.25;;;2.50;;
74810;SDS011;63340;48.404;-4.506;2022-09-09T04:45:40;3.75;;;3.75;;
74810;SDS011;63340;48.404;-4.506;2022-09-09T04:48:06;4.50;;;3.25;;
74810;SDS011;63340;48.404;-4.506;2022-09-09T04:50:33;3.75;;;3.00;;
74810;SDS011;63340;48.404;-4.506;2022-09-09T04:53:02;3.50;;;3.00;;
74810;SDS011;63340;48.404;-4.506;2022-09-09T04:55:29;3.50;;;2.50;;
74810;SDS011;63340;48.404;-4.506;2022-09-09T04:57:55;3.25;;;2.75;;
74810;SDS011;63340;48.404;-4.506;2022-09-09T05:00:21;4.25;;;3.00;;
74810;SDS011;63340;48.404;-4.506;2022-09-09T05:02:47;3.00;;;3.00;;
74810;SDS011;63340;48.404;-4.506;2022-09-09T05:05:12;4.25;;;3.75;;
74810;SDS011;63340;48.404;-4.506;2022-09-09T05:07:38;5.25;;;3.00;;
74810;SDS011;63340;48.404;-4.506;2022-09-09T05:10:03;5.00;;;5.00;;
74810;SDS011;63340;48.404;-4.506;2022-09-09T05:12:30;3.50;;;2.50;;
74810;SDS011;63340;48.404;-4.506;2022-09-09T05:14:56;5.25;;;3.75;;
74810;SDS011;63340;48.404;-4.506;2022-09-09T05:17:22;4.00;;;4.00;;
74810;SDS011;63340;48.404;-4.506;2022-09-09T05:19:48;6.00;;;6.00;;
74810;SDS011;63340;48.404;-4.506;2022-09-09T05:22:17;4.00;;;3.25;;
74810;SDS011;63340;48.404;-4.506;2022-09-09T05:24:46;4.00;;;4.00;;
74810;SDS011;63340;48.404;-4.506;2022-09-09T05:27:11;4.50;;;4.50;;
74810;SDS011;63340;48.404;-4.506;2022-09-09T05:29:37;4.75;;;3.00;;
74810;SDS011;63340;48.404;-4.506;2022-09-09T05:32:03;6.00;;;3.00;;
74810;SDS011;63340;48.404;-4.506;2022-09-09T05:34:29;5.00;;;4.25;;
74810;SDS011;63340;48.404;-4.506;2022-09-09T05:36:54;3.00;;;3.00;;
74810;SDS011;63340;48.404;-4.506;2022-09-09T05:39:20;5.75;;;3.25;;
74810;SDS011;63340;48.404;-4.506;2022-09-09T05:41:45;5.00;;;4.25;;
74810;SDS011;63340;48.404;-4.506;2022-09-09T05:44:10;3.50;;;3.50;;
74810;SDS011;63340;48.404;-4.506;2022-09-09T05:46:36;5.00;;;4.25;;
74810;SDS011;63340;48.404;-4.506;2022-09-09T05:49:02;4.25;;;4.00;;
74810;SDS011;63340;48.404;-4.506;2022-09-09T05:51:28;4.00;;;3.75;;
74810;SDS011;63340;48.404;-4.506;2022-09-09T05:53:57;5.50;;;5.00;;
74810;SDS011;63340;48.404;-4.506;2022-09-09T05:56:28;4.50;;;3.25;;
74810;SDS011;63340;48.404;-4.506;2022-09-09T05:58:55;3.25;;;3.00;;
74810;SDS011;63340;48.404;-4.506;2022-09-09T06:01:22;4.00;;;4.00;;
74810;SDS011;63340;48.404;-4.506;2022-09-09T06:03:52;3.25;;;3.25;;
74810;SDS011;63340;48.404;-4.506;2022-09-09T06:06:30;4.25;;;4.00;;
74810;SDS011;63340;48.404;-4.506;2022-09-09T06:09:01;4.75;;;3.00;;
74810;SDS011;63340;48.404;-4.506;2022-09-09T06:11:28;5.00;;;4.25;;
74810;SDS011;63340;48.404;-4.506;2022-09-09T06:13:58;4.50;;;4.00;;
74810;SDS011;63340;48.404;-4.506;2022-09-09T06:16:25;6.75;;;5.25;;
74810;SDS011;63340;48.404;-4.506;2022-09-09T06:18:52;4.00;;;3.00;;
74810;SDS011;63340;48.404;-4.506;2022-09-09T06:21:27;6.00;;;3.50;;
74810;SDS011;63340;48.404;-4.506;2022-09-09T06:23:58;2.50;;;2.50;;
74810;SDS011;63340;48.404;-4.506;2022-09-09T06:26:33;4.00;;;3.00;;
74810;SDS011;63340;48.404;-4.506;2022-09-09T06:29:00;2.75;;;2.25;;
74810;SDS011;63340;48.404;-4.506;2022-09-09T06:31:29;2.75;;;2.75;;
74810;SDS011;63340;48.404;-4.506;2022-09-09T06:33:55;6.00;;;4.00;;
74810;SDS011;63340;48.404;-4.506;2022-09-09T06:36:23;6.00;;;5.00;;
74810;SDS011;63340;48.404;-4.506;2022-09-09T06:38:50;3.50;;;1.00;;
74810;SDS011;63340;48.404;-4.506;2022-09-09T06:41:16;3.00;;;3.00;;
74810;SDS011;63340;48.404;-4.506;2022-09-09T06:43:44;3.00;;;2.25;;
74810;SDS011;63340;48.404;-4.506;2022-09-09T06:48:38;1.25;;;1.25;;
74810;SDS011;63340;48.404;-4.506;2022-09-09T06:51:08;2.00;;;2.00;;
74810;SDS011;63340;48.404;-4.506;2022-09-09T06:53:38;3.00;;;1.25;;
74810;SDS011;63340;48.404;-4.506;2022-09-09T06:58:50;3.00;;;2.75;;
74810;SDS011;63340;48.404;-4.506;2022-09-09T07:01:18;2.75;;;2.00;;
74810;SDS011;63340;48.404;-4.506;2022-09-09T07:03:46;4.00;;;2.25;;
74810;SDS011;63340;48.404;-4.506;2022-09-09T07:06:20;2.75;;;2.75;;
74810;SDS011;63340;48.404;-4.506;2022-09-09T07:08:52;2.25;;;2.00;;
74810;SDS011;63340;48.404;-4.506;2022-09-09T07:11:20;4.25;;;3.50;;
74810;SDS011;63340;48.404;-4.506;2022-09-09T07:13:46;2.75;;;2.75;;
74810;SDS011;63340;48.404;-4.506;2022-09-09T07:16:14;2.00;;;2.00;;
74810;SDS011;63340;48.404;-4.506;2022-09-09T07:18:42;2.00;;;2.00;;
74810;SDS011;63340;48.404;-4.506;2022-09-09T07:21:09;1.50;;;1.50;;
74810;SDS011;63340;48.404;-4.506;2022-09-09T07:23:37;2.00;;;2.00;;
74810;SDS011;63340;48.404;-4.506;2022-09-09T07:26:07;4.75;;;2.75;;
74810;SDS011;63340;48.404;-4.506;2022-09-09T07:28:34;5.00;;;2.75;;
74810;SDS011;63340;48.404;-4.506;2022-09-09T07:31:12;3.50;;;3.00;;
74810;SDS011;63340;48.404;-4.506;2022-09-09T07:33:41;3.25;;;1.75;;
74810;SDS011;63340;48.404;-4.506;2022-09-09T07:39:08;2.50;;;2.50;;
74810;SDS011;63340;48.404;-4.506;2022-09-09T07:41:37;2.00;;;2.00;;
74810;SDS011;63340;48.404;-4.506;2022-09-09T07:44:23;4.25;;;3.25;;
74810;SDS011;63340;48.404;-4.506;2022-09-09T07:46:50;4.25;;;1.50;;
74810;SDS011;63340;48.404;-4.506;2022-09-09T07:49:16;3.00;;;3.00;;
74810;SDS011;63340;48.404;-4.506;2022-09-09T07:51:44;4.50;;;4.50;;
74810;SDS011;63340;48.404;-4.506;2022-09-09T07:54:12;3.75;;;3.75;;
74810;SDS011;63340;48.404;-4.506;2022-09-09T07:56:40;3.75;;;3.25;;
74810;SDS011;63340;48.404;-4.506;2022-09-09T07:59:06;4.75;;;3.00;;
74810;SDS011;63340;48.404;-4.506;2022-09-09T08:01:34;3.00;;;3.00;;
74810;SDS011;63340;48.404;-4.506;2022-09-09T08:04:04;4.25;;;4.00;;
74810;SDS011;63340;48.404;-4.506;2022-09-09T08:06:42;3.25;;;3.00;;
74810;SDS011;63340;48.404;-4.506;2022-09-09T08:09:17;3.00;;;1.50;;
74810;SDS011;63340;48.404;-4.506;2022-09-09T08:11:43;3.00;;;3.00;;
74810;SDS011;63340;48.404;-4.506;2022-09-09T08:14:12;2.00;;;2.00;;
74810;SDS011;63340;48.404;-4.506;2022-09-09T08:16:43;2.25;;;2.25;;
74810;SDS011;63340;48.404;-4.506;2022-09-09T08:19:13;4.25;;;2.00;;
74810;SDS011;63340;48.404;-4.506;2022-09-09T08:21:40;2.00;;;1.50;;
74810;SDS011;63340;48.404;-4.506;2022-09-09T08:24:06;3.25;;;3.25;;
74810;SDS011;63340;48.404;-4.506;2022-09-09T08:26:35;4.75;;;3.00;;
74810;SDS011;63340;48.404;-4.506;2022-09-09T08:29:07;1.75;;;1.75;;
74810;SDS011;63340;48.404;-4.506;2022-09-09T08:31:38;1.75;;;0.75;;
74810;SDS011;63340;48.404;-4.506;2022-09-09T08:34:07;1.00;;;1.00;;
74810;SDS011;63340;48.404;-4.506;2022-09-09T08:36:35;4.50;;;2.00;;
74810;SDS011;63340;48.404;-4.506;2022-09-09T08:39:03;5.75;;;3.25;;
74810;SDS011;63340;48.404;-4.506;2022-09-09T08:58:02;4.00;;;4.00;;
74810;SDS011;63340;48.404;-4.506;2022-09-09T09:00:40;3.00;;;3.00;;
74810;SDS011;63340;48.404;-4.506;2022-09-09T09:06:10;2.25;;;2.25;;
74810;SDS011;63340;48.404;-4.506;2022-09-09T09:11:40;3.75;;;3.50;;
74810;SDS011;63340;48.404;-4.506;2022-09-09T09:14:20;3.50;;;3.00;;
74810;SDS011;63340;48.404;-4.506;2022-09-09T09:19:21;3.50;;;2.00;;
74810;SDS011;63340;48.404;-4.506;2022-09-09T09:24:54;3.75;;;3.75;;
74810;SDS011;63340;48.404;-4.506;2022-09-09T09:30:44;2.00;;;2.00;;
74810;SDS011;63340;48.404;-4.506;2022-09-09T09:35:52;4.75;;;3.00;;
74810;SDS011;63340;48.404;-4.506;2022-09-09T09:38:22;2.00;;;2.00;;
74810;SDS011;63340;48.404;-4.506;2022-09-09T09:40:57;2.00;;;2.00;;
74810;SDS011;63340;48.404;-4.506;2022-09-09T09:43:25;1.00;;;1.00;;
74810;SDS011;63340;48.404;-4.506;2022-09-09T09:45:53;3.25;;;2.25;;
74810;SDS011;63340;48.404;-4.506;2022-09-09T09:48:20;3.00;;;2.00;;
74810;SDS011;63340;48.404;-4.506;2022-09-09T09:53:25;4.25;;;4.00;;
74810;SDS011;63340;48.404;-4.506;2022-09-09T09:55:58;3.00;;;3.00;;
74810;SDS011;63340;48.404;-4.506;2022-09-09T10:01:29;2.75;;;2.75;;
74810;SDS011;63340;48.404;-4.506;2022-09-09T10:04:02;4.00;;;4.00;;
74810;SDS011;63340;48.404;-4.506;2022-09-09T10:06:41;1.50;;;1.00;;
74810;SDS011;63340;48.404;-4.506;2022-09-09T10:09:23;2.25;;;0.50;;
74810;SDS011;63340;48.404;-4.506;2022-09-09T10:12:09;1.50;;;1.50;;
74810;SDS011;63340;48.404;-4.506;2022-09-09T10:23:41;2.25;;;1.25;;
74810;SDS011;63340;48.404;-4.506;2022-09-09T10:40:13;3.25;;;2.00;;
74810;SDS011;63340;48.404;-4.506;2022-09-09T10:42:55;3.00;;;1.75;;
74810;SDS011;63340;48.404;-4.506;2022-09-09T10:54:24;1.00;;;1.00;;
74810;SDS011;63340;48.404;-4.506;2022-09-09T10:57:13;6.00;;;3.00;;
74810;SDS011;63340;48.404;-4.506;2022-09-09T10:59:52;2.00;;;1.75;;
74810;SDS011;63340;48.404;-4.506;2022-09-09T11:10:02;1.00;;;1.00;;
74810;SDS011;63340;48.404;-4.506;2022-09-09T11:12:32;1.00;;;1.00;;
74810;SDS011;63340;48.404;-4.506;2022-09-09T11:15:06;0.00;;;0.00;;
74810;SDS011;63340;48.404;-4.506;2022-09-09T11:17:46;2.00;;;2.00;;
74810;SDS011;63340;48.404;-4.506;2022-09-09T11:20:15;0.25;;;0.25;;
74810;SDS011;63340;48.404;-4.506;2022-09-09T11:22:48;1.25;;;1.25;;
74810;SDS011;63340;48.404;-4.506;2022-09-09T11:31:08;2.25;;;2.00;;
74810;SDS011;63340;48.404;-4.506;2022-09-09T11:42:05;1.75;;;1.00;;
74810;SDS011;63340;48.404;-4.506;2022-09-09T11:44:37;1.50;;;1.00;;
74810;SDS011;63340;48.404;-4.506;2022-09-09T11:47:02;3.25;;;1.00;;
74810;SDS011;63340;48.404;-4.506;2022-09-09T11:49:41;0.25;;;0.25;;
74810;SDS011;63340;48.404;-4.506;2022-09-09T11:52:35;1.50;;;1.50;;
74810;SDS011;63340;48.404;-4.506;2022-09-09T11:55:08;0.25;;;0.25;;
74810;SDS011;63340;48.404;-4.506;2022-09-09T11:57:37;0.00;;;0.00;;
74810;SDS011;63340;48.404;-4.506;2022-09-09T12:00:03;1.00;;;0.25;;
74810;SDS011;63340;48.404;-4.506;2022-09-09T12:02:30;1.00;;;0.25;;
74810;SDS011;63340;48.404;-4.506;2022-09-09T12:07:40;0.00;;;0.00;;
74810;SDS011;63340;48.404;-4.506;2022-09-09T12:10:32;1.00;;;0.00;;
74810;SDS011;63340;48.404;-4.506;2022-09-09T12:15:53;1.50;;;1.50;;
74810;SDS011;63340;48.404;-4.506;2022-09-09T12:18:24;0.50;;;0.00;;
74810;SDS011;63340;48.404;-4.506;2022-09-09T12:21:02;0.75;;;0.00;;
74810;SDS011;63340;48.404;-4.506;2022-09-09T12:23:36;0.00;;;0.00;;
74810;SDS011;63340;48.404;-4.506;2022-09-09T12:26:26;0.50;;;0.25;;
74810;SDS011;63340;48.404;-4.506;2022-09-09T12:29:05;2.00;;;1.00;;
74810;SDS011;63340;48.404;-4.506;2022-09-09T12:36:49;1.00;;;0.25;;
74810;SDS011;63340;48.404;-4.506;2022-09-09T12:39:33;2.75;;;1.00;;
74810;SDS011;63340;48.404;-4.506;2022-09-09T12:42:03;0.50;;;0.50;;
74810;SDS011;63340;48.404;-4.506;2022-09-09T12:44:29;1.25;;;1.00;;
74810;SDS011;63340;48.404;-4.506;2022-09-09T12:46:55;0.00;;;0.00;;
74810;SDS011;63340;48.404;-4.506;2022-09-09T12:52:08;0.00;;;0.00;;
74810;SDS011;63340;48.404;-4.506;2022-09-09T12:54:43;0.00;;;0.00;;
74810;SDS011;63340;48.404;-4.506;2022-09-09T12:57:12;0.00;;;0.00;;
74810;SDS011;63340;48.404;-4.506;2022-09-09T12:59:43;0.75;;;0.00;;
74810;SDS011;63340;48.404;-4.506;2022-09-09T13:02:31;1.00;;;1.00;;
74810;SDS011;63340;48.404;-4.506;2022-09-09T13:05:05;1.00;;;1.00;;
74810;SDS011;63340;48.404;-4.506;2022-09-09T13:07:38;1.25;;;1.00;;
74810;SDS011;63340;48.404;-4.506;2022-09-09T13:10:04;0.25;;;0.00;;
74810;SDS011;63340;48.404;-4.506;2022-09-09T13:12:29;1.25;;;1.00;;
74810;SDS011;63340;48.404;-4.506;2022-09-09T13:14:55;1.75;;;1.00;;
74810;SDS011;63340;48.404;-4.506;2022-09-09T13:17:23;0.25;;;0.25;;
74810;SDS011;63340;48.404;-4.506;2022-09-09T13:19:51;0.00;;;0.00;;
74810;SDS011;63340;48.404;-4.506;2022-09-09T13:22:34;1.75;;;0.00;;
74810;SDS011;63340;48.404;-4.506;2022-09-09T13:25:02;1.00;;;0.00;;
74810;SDS011;63340;48.404;-4.506;2022-09-09T13:27:50;0.00;;;0.00;;
74810;SDS011;63340;48.404;-4.506;2022-09-09T13:35:57;1.00;;;1.00;;
74810;SDS011;63340;48.404;-4.506;2022-09-09T13:38:23;1.00;;;1.00;;
74810;SDS011;63340;48.404;-4.506;2022-09-09T13:43:38;1.25;;;1.25;;
74810;SDS011;63340;48.404;-4.506;2022-09-09T13:49:19;1.00;;;0.25;;
74810;SDS011;63340;48.404;-4.506;2022-09-09T13:51:49;0.75;;;0.75;;
74810;SDS011;63340;48.404;-4.506;2022-09-09T13:54:16;1.25;;;1.00;;
74810;SDS011;63340;48.404;-4.506;2022-09-09T13:56:43;2.00;;;2.00;;
74810;SDS011;63340;48.404;-4.506;2022-09-09T13:59:14;1.25;;;1.25;;
74810;SDS011;63340;48.404;-4.506;2022-09-09T14:01:44;2.00;;;1.00;;
74810;SDS011;63340;48.404;-4.506;2022-09-09T14:04:10;1.00;;;0.50;;
74810;SDS011;63340;48.404;-4.506;2022-09-09T14:06:37;1.00;;;1.00;;
74810;SDS011;63340;48.404;-4.506;2022-09-09T14:09:05;1.25;;;1.25;;
74810;SDS011;63340;48.404;-4.506;2022-09-09T14:11:31;2.00;;;1.25;;
74810;SDS011;63340;48.404;-4.506;2022-09-09T14:13:56;0.75;;;0.25;;
74810;SDS011;63340;48.404;-4.506;2022-09-09T14:16:22;0.00;;;0.00;;
74810;SDS011;63340;48.404;-4.506;2022-09-09T14:18:47;0.00;;;0.00;;
74810;SDS011;63340;48.404;-4.506;2022-09-09T14:21:13;1.00;;;1.00;;
74810;SDS011;63340;48.404;-4.506;2022-09-09T14:23:39;1.00;;;0.00;;
74810;SDS011;63340;48.404;-4.506;2022-09-09T14:26:05;1.00;;;1.00;;
74810;SDS011;63340;48.404;-4.506;2022-09-09T14:28:31;0.00;;;0.00;;
74810;SDS011;63340;48.404;-4.506;2022-09-09T14:31:01;1.75;;;1.00;;
74810;SDS011;63340;48.404;-4.506;2022-09-09T14:33:28;1.00;;;1.00;;
74810;SDS011;63340;48.404;-4.506;2022-09-09T14:35:58;0.00;;;0.00;;
74810;SDS011;63340;48.404;-4.506;2022-09-09T14:38:25;2.25;;;1.00;;
74810;SDS011;63340;48.404;-4.506;2022-09-09T14:40:54;1.00;;;1.00;;
74810;SDS011;63340;48.404;-4.506;2022-09-09T14:43:19;0.75;;;0.75;;
74810;SDS011;63340;48.404;-4.506;2022-09-09T14:45:45;1.00;;;0.75;;
74810;SDS011;63340;48.404;-4.506;2022-09-09T14:48:12;0.00;;;0.00;;
74810;SDS011;63340;48.404;-4.506;2022-09-09T14:50:39;0.00;;;0.00;;
74810;SDS011;63340;48.404;-4.506;2022-09-09T14:53:05;0.75;;;0.75;;
74810;SDS011;63340;48.404;-4.506;2022-09-09T14:55:31;1.00;;;0.75;;
74810;SDS011;63340;48.404;-4.506;2022-09-09T14:57:56;1.00;;;1.00;;
74810;SDS011;63340;48.404;-4.506;2022-09-09T15:00:22;2.50;;;1.25;;
74810;SDS011;63340;48.404;-4.506;2022-09-09T15:02:47;1.00;;;0.00;;
74810;SDS011;63340;48.404;-4.506;2022-09-09T15:05:13;0.00;;;0.00;;
74810;SDS011;63340;48.404;-4.506;2022-09-09T15:07:40;2.75;;;2.00;;
74810;SDS011;63340;48.404;-4.506;2022-09-09T15:10:05;4.00;;;3.25;;
74810;SDS011;63340;48.404;-4.506;2022-09-09T15:12:31;1.75;;;1.75;;
74810;SDS011;63340;48.404;-4.506;2022-09-09T15:14:58;1.00;;;1.00;;
74810;SDS011;63340;48.404;-4.506;2022-09-09T15:17:23;0.00;;;0.00;;
74810;SDS011;63340;48.404;-4.506;2022-09-09T15:19:50;1.75;;;1.75;;
74810;SDS011;63340;48.404;-4.506;2022-09-09T15:22:16;1.25;;;1.25;;
74810;SDS011;63340;48.404;-4.506;2022-09-09T15:24:41;1.00;;;1.00;;
74810;SDS011;63340;48.404;-4.506;2022-09-09T15:27:06;3.00;;;1.00;;
74810;SDS011;63340;48.404;-4.506;2022-09-09T15:29:32;2.00;;;1.25;;
74810;SDS011;63340;48.404;-4.506;2022-09-09T15:31:57;2.00;;;0.25;;
74810;SDS011;63340;48.404;-4.506;2022-09-09T15:34:23;0.50;;;0.00;;
74810;SDS011;63340;48.404;-4.506;2022-09-09T15:36:48;0.75;;;0.50;;
74810;SDS011;63340;48.404;-4.506;2022-09-09T15:39:15;0.50;;;0.50;;
74810;SDS011;63340;48.404;-4.506;2022-09-09T15:41:43;1.25;;;0.75;;
74810;SDS011;63340;48.404;-4.506;2022-09-09T15:44:10;1.75;;;0.00;;
74810;SDS011;63340;48.404;-4.506;2022-09-09T15:46:39;0.75;;;0.25;;
74810;SDS011;63340;48.404;-4.506;2022-09-09T15:49:06;1.75;;;1.75;;
74810;SDS011;63340;48.404;-4.506;2022-09-09T15:51:34;0.50;;;0.50;;
74810;SDS011;63340;48.404;-4.506;2022-09-09T15:54:00;2.00;;;1.00;;
74810;SDS011;63340;48.404;-4.506;2022-09-09T15:56:26;0.00;;;0.00;;
74810;SDS011;63340;48.404;-4.506;2022-09-09T15:58:53;1.00;;;1.00;;
74810;SDS011;63340;48.404;-4.506;2022-09-09T16:01:20;1.00;;;1.00;;
74810;SDS011;63340;48.404;-4.506;2022-09-09T16:03:45;3.00;;;0.75;;
74810;SDS011;63340;48.404;-4.506;2022-09-09T16:06:11;1.00;;;1.00;;
74810;SDS011;63340;48.404;-4.506;2022-09-09T16:08:41;2.00;;;1.00;;
74810;SDS011;63340;48.404;-4.506;2022-09-09T16:11:09;0.75;;;0.75;;
74810;SDS011;63340;48.404;-4.506;2022-09-09T16:13:39;1.00;;;1.00;;
74810;SDS011;63340;48.404;-4.506;2022-09-09T16:16:05;1.00;;;1.00;;
74810;SDS011;63340;48.404;-4.506;2022-09-09T16:18:35;0.75;;;0.75;;
74810;SDS011;63340;48.404;-4.506;2022-09-09T16:21:01;3.00;;;0.50;;
74810;SDS011;63340;48.404;-4.506;2022-09-09T16:23:28;0.00;;;0.00;;
74810;SDS011;63340;48.404;-4.506;2022-09-09T16:25:54;1.25;;;1.00;;
74810;SDS011;63340;48.404;-4.506;2022-09-09T16:28:20;1.00;;;1.00;;
74810;SDS011;63340;48.404;-4.506;2022-09-09T16:30:46;1.00;;;0.50;;
74810;SDS011;63340;48.404;-4.506;2022-09-09T16:33:11;0.50;;;0.50;;
74810;SDS011;63340;48.404;-4.506;2022-09-09T16:35:39;1.00;;;1.00;;
74810;SDS011;63340;48.404;-4.506;2022-09-09T16:38:05;0.75;;;0.75;;
74810;SDS011;63340;48.404;-4.506;2022-09-09T16:40:33;1.00;;;1.00;;
74810;SDS011;63340;48.404;-4.506;2022-09-09T16:42:59;0.00;;;0.00;;
74810;SDS011;63340;48.404;-4.506;2022-09-09T16:45:26;1.50;;;1.00;;
74810;SDS011;63340;48.404;-4.506;2022-09-09T16:47:51;1.50;;;0.75;;
74810;SDS011;63340;48.404;-4.506;2022-09-09T16:50:17;0.00;;;0.00;;
74810;SDS011;63340;48.404;-4.506;2022-09-09T16:52:42;1.00;;;1.00;;
74810;SDS011;63340;48.404;-4.506;2022-09-09T16:55:08;0.00;;;0.00;;
74810;SDS011;63340;48.404;-4.506;2022-09-09T16:57:34;0.50;;;0.50;;
74810;SDS011;63340;48.404;-4.506;2022-09-09T17:00:00;0.75;;;0.75;;
74810;SDS011;63340;48.404;-4.506;2022-09-09T17:02:26;1.00;;;1.00;;
74810;SDS011;63340;48.404;-4.506;2022-09-09T17:04:51;1.00;;;1.00;;
74810;SDS011;63340;48.404;-4.506;2022-09-09T17:07:17;0.00;;;0.00;;
74810;SDS011;63340;48.404;-4.506;2022-09-09T17:09:44;1.00;;;1.00;;
74810;SDS011;63340;48.404;-4.506;2022-09-09T17:12:10;1.00;;;1.00;;
74810;SDS011;63340;48.404;-4.506;2022-09-09T17:14:37;1.00;;;0.00;;
74810;SDS011;63340;48.404;-4.506;2022-09-09T17:17:03;1.00;;;1.00;;
74810;SDS011;63340;48.404;-4.506;2022-09-09T17:19:29;0.25;;;0.25;;
74810;SDS011;63340;48.404;-4.506;2022-09-09T17:21:55;1.25;;;1.00;;
74810;SDS011;63340;48.404;-4.506;2022-09-09T17:24:23;1.00;;;1.00;;